Time;durP1;ratioP1;P1;durP2;ratioP2;P2;SDS_P1;SDS_P2;PMS_P1;PMS_P2;Temp;Humidity;BMP_temperature;BMP_pressure;BME280_temperature;BME280_humidity;BME280_pressure;Samples;Min_cycle;Max_cycle;Signal;HPM_P1;HPM_P2
2022/04/19 00:00:54;;;;;;;11.97;8.60;;;9.80;72.20;;;;;;5123571;28;20478;-81
2022/04/19 00:03:22;;;;;;;11.20;7.83;;;9.70;72.30;;;;;;5123559;28;20443;-81
2022/04/19 00:05:51;;;;;;;12.20;8.10;;;9.70;72.50;;;;;;5123168;28;20523;-81
2022/04/19 00:08:19;;;;;;;11.80;8.33;;;9.60;72.60;;;;;;5123610;28;20510;-80
2022/04/19 00:10:47;;;;;;;10.60;7.17;;;9.60;72.80;;;;;;5122493;28;20952;-80
2022/04/19 00:13:17;;;;;;;11.30;7.23;;;9.50;72.80;;;;;;5122821;28;20447;-81
2022/04/19 00:15:47;;;;;;;11.50;7.70;;;9.50;73.00;;;;;;5122761;28;20487;-81
2022/04/19 00:18:16;;;;;;;13.20;8.70;;;9.40;73.10;;;;;;5120680;28;20467;-80
2022/04/19 00:20:44;;;;;;;10.43;8.03;;;9.40;73.20;;;;;;5124285;28;20443;-81
2022/04/19 00:23:13;;;;;;;12.70;8.53;;;9.30;73.40;;;;;;5125058;28;20477;-80
2022/04/19 00:25:42;;;;;;;12.90;8.70;;;9.30;73.70;;;;;;5125197;28;20542;-81
2022/04/19 00:28:11;;;;;;;13.27;9.30;;;9.30;74.00;;;;;;5132709;28;20536;-81
2022/04/19 00:30:40;;;;;;;11.23;7.80;;;9.20;74.30;;;;;;5137486;28;20481;-81
2022/04/19 00:33:11;;;;;;;13.60;8.90;;;9.30;74.70;;;;;;5125890;28;20443;-81
2022/04/19 00:35:39;;;;;;;12.90;9.10;;;9.20;74.90;;;;;;5124424;28;20480;-81
2022/04/19 00:38:08;;;;;;;13.70;8.70;;;9.20;75.00;;;;;;5125079;28;20463;-81
2022/04/19 00:40:37;;;;;;;13.10;9.27;;;9.20;75.20;;;;;;5126220;28;20443;-81
2022/04/19 00:43:06;;;;;;;11.40;8.40;;;9.20;75.30;;;;;;5125818;28;20952;-81
2022/04/19 00:45:34;;;;;;;12.70;8.60;;;9.20;75.40;;;;;;5126163;28;20435;-81
2022/04/19 00:48:03;;;;;;;12.27;8.80;;;9.20;75.50;;;;;;5123673;28;20528;-81
2022/04/19 00:50:36;;;;;;;12.73;9.33;;;9.20;75.50;;;;;;5144976;27;20948;-81
2022/04/19 00:53:06;;;;;;;12.50;8.63;;;9.10;75.50;;;;;;5127373;28;20541;-81
2022/04/19 00:55:34;;;;;;;13.63;8.63;;;9.10;75.70;;;;;;5127428;28;20446;-81
2022/04/19 00:58:03;;;;;;;13.63;9.97;;;9.10;75.80;;;;;;5117301;28;20472;-81
2022/04/19 01:00:31;;;;;;;12.30;8.30;;;9.10;75.90;;;;;;5122027;28;20476;-81
2022/04/19 01:03:11;;;;;;;12.47;9.00;;;9.00;76.00;;;;;;5106026;28;20519;-80
2022/04/19 01:05:45;;;;;;;13.27;9.17;;;9.00;76.10;;;;;;5105559;28;20448;-80
2022/04/19 01:08:17;;;;;;;13.20;9.03;;;8.90;76.10;;;;;;5122729;28;21004;-81
2022/04/19 01:10:46;;;;;;;11.87;8.40;;;8.80;76.00;;;;;;5122134;28;20448;-81
2022/04/19 01:13:31;;;;;;;11.70;8.47;;;8.80;76.10;;;;;;5105202;28;20452;-81
2022/04/19 01:16:00;;;;;;;11.17;8.43;;;8.70;76.20;;;;;;5126296;27;20462;-81
2022/04/19 01:18:29;;;;;;;13.50;8.50;;;8.80;76.40;;;;;;5123975;28;20463;-81
2022/04/19 01:21:06;;;;;;;13.63;9.57;;;8.70;76.50;;;;;;5124023;28;20469;-81
2022/04/19 01:23:39;;;;;;;14.10;10.37;;;8.70;76.60;;;;;;5123549;28;20482;-81
2022/04/19 01:26:07;;;;;;;12.30;8.97;;;8.60;76.70;;;;;;5120932;28;20557;-81
2022/04/19 01:28:39;;;;;;;12.43;9.53;;;8.60;76.80;;;;;;5118269;28;20468;-81
2022/04/19 01:31:09;;;;;;;12.87;9.10;;;8.50;76.80;;;;;;5101978;28;20458;-81
2022/04/19 01:33:45;;;;;;;14.77;9.60;;;8.50;77.00;;;;;;5101796;28;20852;-81
2022/04/19 01:36:13;;;;;;;11.73;9.03;;;8.40;77.10;;;;;;5116499;28;20508;-81
2022/04/19 01:38:48;;;;;;;13.80;9.43;;;8.40;77.10;;;;;;5123753;28;20470;-80
2022/04/19 01:41:19;;;;;;;12.67;9.73;;;8.40;77.20;;;;;;5123644;28;20482;-81
2022/04/19 01:43:52;;;;;;;13.43;10.30;;;8.30;77.20;;;;;;5123722;28;20959;-80
2022/04/19 01:46:23;;;;;;;13.87;10.00;;;8.30;77.30;;;;;;5123153;28;20451;-80
2022/04/19 01:48:51;;;;;;;12.43;9.47;;;8.30;77.50;;;;;;5122673;28;20468;-81
2022/04/19 01:51:20;;;;;;;13.50;9.47;;;8.20;77.40;;;;;;5121154;28;20510;-81
2022/04/19 01:53:50;;;;;;;13.53;10.00;;;8.20;77.60;;;;;;5123470;28;20443;-81
2022/04/19 01:56:20;;;;;;;14.70;10.20;;;8.20;77.70;;;;;;5139045;27;20948;-80
2022/04/19 01:58:54;;;;;;;13.30;9.67;;;8.10;77.70;;;;;;5123229;28;20427;-81
2022/04/19 02:01:47;;;;;;;13.97;9.93;;;8.10;77.90;;;;;;5105628;28;20545;-80
2022/04/19 02:04:18;;;;;;;13.70;9.77;;;8.00;77.80;;;;;;5122190;28;20485;-83
2022/04/19 02:06:47;;;;;;;13.43;9.40;;;8.00;77.80;;;;;;5122433;28;20915;-81
2022/04/19 02:09:17;;;;;;;17.27;10.20;;;8.00;77.90;;;;;;5121835;28;20470;-80
2022/04/19 02:11:46;;;;;;;14.07;10.23;;;7.90;78.00;;;;;;5121517;28;20447;-81
2022/04/19 02:14:26;;;;;;;13.50;10.07;;;7.90;78.20;;;;;;5121101;28;20450;-81
2022/04/19 02:16:55;;;;;;;12.27;9.43;;;7.80;78.20;;;;;;5121979;28;20496;-81
2022/04/19 02:19:23;;;;;;;14.57;9.77;;;7.80;78.30;;;;;;5122458;28;20447;-82
2022/04/19 02:21:52;;;;;;;17.53;10.67;;;7.80;78.50;;;;;;5122644;28;20546;-81
2022/04/19 02:24:21;;;;;;;13.20;10.10;;;7.80;78.60;;;;;;5123071;28;20443;-81
2022/04/19 02:26:50;;;;;;;12.40;10.20;;;7.70;78.70;;;;;;5121067;28;20477;-80
2022/04/19 02:29:19;;;;;;;14.47;11.17;;;7.60;78.70;;;;;;5121234;28;20463;-81
2022/04/19 02:31:50;;;;;;;15.67;10.80;;;7.60;78.90;;;;;;5119891;28;20510;-82
2022/04/19 02:34:20;;;;;;;13.37;10.80;;;7.60;79.00;;;;;;5121019;28;20450;-80
2022/04/19 02:36:48;;;;;;;15.17;10.50;;;7.60;79.20;;;;;;5112615;28;20485;-81
2022/04/19 02:39:18;;;;;;;14.43;11.07;;;7.50;79.20;;;;;;5120179;28;20446;-80
2022/04/19 02:41:50;;;;;;;13.40;10.73;;;7.50;79.30;;;;;;5119763;28;20454;-81
2022/04/19 02:44:18;;;;;;;15.20;10.80;;;7.50;79.40;;;;;;5119768;28;21016;-80
2022/04/19 02:47:11;;;;;;;16.20;12.87;;;7.50;79.60;;;;;;5120392;28;20576;-80
2022/04/19 02:49:44;;;;;;;13.87;10.13;;;7.40;79.60;;;;;;5119332;28;20495;-81
2022/04/19 02:52:13;;;;;;;14.80;11.60;;;7.40;79.70;;;;;;5119044;27;20442;-81
2022/04/19 02:54:42;;;;;;;16.20;12.20;;;7.40;79.80;;;;;;5136660;27;20481;-81
2022/04/19 02:57:12;;;;;;;16.17;12.33;;;7.30;79.90;;;;;;5119594;28;20470;-81
2022/04/19 02:59:42;;;;;;;16.00;13.13;;;7.30;80.00;;;;;;5119462;28;20449;-81
2022/04/19 03:02:11;;;;;;;15.50;11.73;;;7.30;80.20;;;;;;5119088;28;20439;-80
2022/04/19 03:04:39;;;;;;;16.60;10.90;;;7.30;80.30;;;;;;5119088;28;20455;-81
2022/04/19 03:07:08;;;;;;;16.37;13.00;;;7.20;80.20;;;;;;5118546;28;20618;-80
2022/04/19 03:09:37;;;;;;;15.27;11.90;;;7.20;80.30;;;;;;5119808;28;20573;-81
2022/04/19 03:12:06;;;;;;;17.50;11.87;;;7.20;80.40;;;;;;5119945;28;20525;-81
2022/04/19 03:14:38;;;;;;;13.90;10.30;;;7.10;80.40;;;;;;5121300;28;20450;-81
2022/04/19 03:17:06;;;;;;;15.40;12.00;;;7.10;80.50;;;;;;5120302;28;20471;-81
2022/04/19 03:19:36;;;;;;;15.33;11.87;;;7.10;80.60;;;;;;5136967;27;20461;-80
2022/04/19 03:22:04;;;;;;;16.07;12.30;;;7.20;80.80;;;;;;5119386;28;20468;-81
2022/04/19 03:30:08;;;;;;;16.90;12.90;;;7.00;80.70;;;;;;5118403;28;20476;-80
2022/04/19 03:32:37;;;;;;;15.50;12.03;;;6.90;80.70;;;;;;5134272;27;20994;-80
2022/04/19 03:35:06;;;;;;;16.33;11.57;;;6.90;80.90;;;;;;5117115;28;20459;-80
2022/04/19 03:37:34;;;;;;;15.33;11.20;;;6.90;81.00;;;;;;5117564;28;20876;-80
2022/04/19 03:40:02;;;;;;;15.73;11.20;;;6.80;81.00;;;;;;5117789;28;20475;-80
2022/04/19 03:42:30;;;;;;;14.27;10.63;;;6.80;81.20;;;;;;5119484;27;20451;-80
2022/04/19 03:44:59;;;;;;;15.40;10.50;;;6.80;81.30;;;;;;5117601;28;20483;-80
2022/04/19 03:47:29;;;;;;;14.40;10.23;;;6.80;81.30;;;;;;5124365;28;20470;-79
2022/04/19 03:49:59;;;;;;;12.70;10.53;;;6.80;81.40;;;;;;5149888;28;20467;-80
2022/04/19 03:52:27;;;;;;;14.73;10.60;;;6.80;81.50;;;;;;5132448;28;20446;-80
2022/04/19 03:54:56;;;;;;;16.40;11.20;;;6.70;81.50;;;;;;5132194;28;20472;-80
2022/04/19 03:57:26;;;;;;;12.80;8.90;;;6.70;81.70;;;;;;5133690;28;20466;-80
2022/04/19 03:59:55;;;;;;;14.90;11.77;;;6.70;81.80;;;;;;5132326;28;20443;-80
2022/04/19 04:02:30;;;;;;;12.93;8.90;;;6.70;82.00;;;;;;5132975;28;20463;-80
2022/04/19 04:04:58;;;;;;;13.10;10.57;;;6.70;82.10;;;;;;5132495;28;20468;-80
2022/04/19 04:07:27;;;;;;;14.00;10.93;;;6.60;82.20;;;;;;5132568;28;20470;-79
2022/04/19 04:09:56;;;;;;;12.07;9.67;;;6.70;82.40;;;;;;5132082;28;20458;-82
2022/04/19 04:12:25;;;;;;;13.93;10.17;;;6.70;82.60;;;;;;5131980;28;20450;-80
2022/04/19 04:14:54;;;;;;;13.53;9.70;;;6.70;82.60;;;;;;5132194;28;20439;-80
2022/04/19 04:17:22;;;;;;;11.83;9.53;;;6.60;82.60;;;;;;5132597;28;20545;-81
2022/04/19 04:19:53;;;;;;;12.07;9.03;;;6.70;82.80;;;;;;5132354;28;20456;-80
2022/04/19 04:22:23;;;;;;;13.40;9.57;;;6.60;82.80;;;;;;5133668;28;20468;-80
2022/04/19 04:24:52;;;;;;;14.23;9.90;;;6.60;82.80;;;;;;5135857;28;20460;-80
2022/04/19 04:27:21;;;;;;;16.13;11.87;;;6.60;82.90;;;;;;5135847;28;20495;-80
2022/04/19 04:29:49;;;;;;;14.87;9.47;;;6.60;83.00;;;;;;5153937;27;20530;-80
2022/04/19 04:32:18;;;;;;;14.43;10.53;;;6.60;83.20;;;;;;5137259;28;20437;-80
2022/04/19 04:34:47;;;;;;;14.13;10.40;;;6.60;83.30;;;;;;5136053;28;20430;-80
2022/04/19 04:37:17;;;;;;;12.33;9.97;;;6.60;83.30;;;;;;5135796;28;20487;-80
2022/04/19 04:39:55;;;;;;;11.73;9.30;;;6.60;83.40;;;;;;5135687;28;20445;-80
2022/04/19 04:42:27;;;;;;;15.40;10.77;;;6.60;83.40;;;;;;5138976;28;20445;-80
2022/04/19 04:45:10;;;;;;;13.60;10.50;;;6.60;83.50;;;;;;5141564;28;20476;-80
2022/04/19 04:50:26;;;;;;;14.37;10.40;;;6.60;83.70;;;;;;5140796;28;20517;-80
2022/04/19 04:52:56;;;;;;;13.77;9.80;;;6.60;83.80;;;;;;5140951;28;20430;-80
2022/04/19 04:55:24;;;;;;;14.80;11.43;;;6.60;83.90;;;;;;5140984;28;20521;-80
2022/04/19 04:57:57;;;;;;;14.03;10.20;;;6.70;84.10;;;;;;5140036;28;20841;-80
2022/04/19 05:00:27;;;;;;;16.70;10.77;;;6.70;84.20;;;;;;5140885;28;20442;-80
2022/04/19 05:02:59;;;;;;;13.50;10.60;;;6.70;84.30;;;;;;5139920;28;20429;-81
2022/04/19 05:05:28;;;;;;;12.60;9.93;;;6.70;84.40;;;;;;5140103;28;20431;-80
2022/04/19 05:08:03;;;;;;;13.83;10.97;;;6.70;84.50;;;;;;5137632;28;20469;-80
2022/04/19 05:10:32;;;;;;;13.90;10.43;;;6.70;84.60;;;;;;5135705;28;20533;-80
2022/04/19 05:13:05;;;;;;;13.80;10.87;;;6.70;84.70;;;;;;5128529;28;20832;-76
2022/04/19 05:15:35;;;;;;;12.63;8.30;;;6.70;84.80;;;;;;5144753;27;20463;-78
2022/04/19 05:18:04;;;;;;;13.00;10.40;;;6.80;84.90;;;;;;5128395;28;20904;-79
2022/04/19 05:20:32;;;;;;;14.00;11.10;;;6.80;85.00;;;;;;5127783;28;20446;-79
2022/04/19 05:23:02;;;;;;;14.67;10.30;;;6.80;85.10;;;;;;5128862;28;20466;-78
2022/04/19 05:25:32;;;;;;;13.60;10.03;;;6.80;85.20;;;;;;5131206;28;20471;-79
2022/04/19 05:28:00;;;;;;;13.00;9.30;;;6.80;85.30;;;;;;5132291;28;20473;-79
2022/04/19 05:30:29;;;;;;;12.83;9.10;;;6.80;85.30;;;;;;5129258;28;20462;-78
2022/04/19 05:32:57;;;;;;;12.47;9.73;;;6.80;85.50;;;;;;5142919;27;21019;-78
2022/04/19 05:35:26;;;;;;;12.20;9.70;;;6.90;85.60;;;;;;5148347;27;20450;-79
2022/04/19 05:37:55;;;;;;;11.57;9.00;;;6.90;85.70;;;;;;5130442;28;20483;-79
2022/04/19 05:40:26;;;;;;;11.80;9.03;;;7.00;85.80;;;;;;5132062;28;20454;-79
2022/04/19 05:42:55;;;;;;;11.60;8.23;;;7.00;85.80;;;;;;5133915;28;20835;-79
2022/04/19 05:45:24;;;;;;;11.33;8.60;;;7.10;86.00;;;;;;5133664;28;20450;-80
2022/04/19 05:47:52;;;;;;;12.70;8.40;;;7.10;86.00;;;;;;5134329;28;20500;-80
2022/04/19 05:50:21;;;;;;;14.00;8.20;;;7.10;86.10;;;;;;5135734;28;20447;-80
2022/04/19 05:52:49;;;;;;;11.50;7.73;;;7.20;86.20;;;;;;5139488;28;20447;-80
2022/04/19 05:55:18;;;;;;;10.50;8.30;;;7.20;86.30;;;;;;5135770;28;20442;-81
2022/04/19 05:57:50;;;;;;;11.13;8.50;;;7.30;86.50;;;;;;5135021;28;20459;-80
2022/04/19 06:00:20;;;;;;;11.30;7.40;;;7.30;86.50;;;;;;5133865;28;20435;-79
2022/04/19 06:05:40;;;;;;;10.53;7.83;;;7.60;86.70;;;;;;5133086;28;20457;-80
2022/04/19 06:08:09;;;;;;;11.20;7.50;;;7.90;86.80;;;;;;5133138;28;20467;-80
2022/04/19 06:10:39;;;;;;;9.57;7.17;;;8.10;86.90;;;;;;5133422;28;20470;-80
2022/04/19 06:13:09;;;;;;;11.03;6.77;;;8.40;86.90;;;;;;5150894;27;20526;-79
2022/04/19 06:15:39;;;;;;;12.37;7.13;;;8.70;87.00;;;;;;5115985;28;20447;-80
2022/04/19 06:18:09;;;;;;;9.80;6.90;;;9.00;86.90;;;;;;5132978;28;20538;-80
2022/04/19 06:20:50;;;;;;;8.47;6.00;;;9.30;86.80;;;;;;5132830;28;20435;-80
2022/04/19 06:23:18;;;;;;;9.93;5.80;;;9.60;86.70;;;;;;5133118;28;20861;-79
2022/04/19 06:25:46;;;;;;;10.97;6.00;;;9.90;86.60;;;;;;5134048;28;20834;-80
2022/04/19 06:28:19;;;;;;;9.40;6.00;;;10.20;85.40;;;;;;5133927;28;20512;-80
2022/04/19 06:31:13;;;;;;;9.10;5.67;;;10.40;85.00;;;;;;5119326;27;20506;-80
2022/04/19 06:33:44;;;;;;;8.97;5.63;;;10.70;84.60;;;;;;5133061;28;20435;-80
2022/04/19 06:36:13;;;;;;;8.00;5.40;;;10.90;84.10;;;;;;5147012;27;20480;-81
2022/04/19 06:38:41;;;;;;;9.97;6.40;;;11.10;83.80;;;;;;5132250;28;20490;-80
2022/04/19 06:41:11;;;;;;;9.30;5.83;;;11.30;83.70;;;;;;5132012;28;20521;-80
2022/04/19 06:43:44;;;;;;;8.33;4.83;;;11.50;83.30;;;;;;5132121;28;20519;-80
2022/04/19 06:46:21;;;;;;;8.00;4.80;;;11.70;83.20;;;;;;5130815;28;20451;-80
2022/04/19 06:49:02;;;;;;;7.77;4.73;;;12.00;83.00;;;;;;5130321;28;20439;-80
2022/04/19 06:51:32;;;;;;;9.00;5.07;;;12.20;82.60;;;;;;5129797;28;20463;-80
2022/04/19 06:54:06;;;;;;;9.80;4.63;;;12.40;82.50;;;;;;5130710;28;20452;-81
2022/04/19 06:56:55;;;;;;;10.07;5.37;;;12.60;82.90;;;;;;5131799;28;20463;-80
2022/04/19 06:59:25;;;;;;;6.93;4.10;;;12.80;81.70;;;;;;5147223;27;20448;-81
2022/04/19 07:01:54;;;;;;;7.10;3.90;;;13.00;81.10;;;;;;5130423;28;20447;-80
2022/04/19 07:04:34;;;;;;;7.50;4.03;;;13.20;80.60;;;;;;5131163;28;20420;-80
2022/04/19 07:07:05;;;;;;;6.20;3.50;;;13.40;79.80;;;;;;5144476;27;20467;-81
2022/04/19 07:09:34;;;;;;;6.60;2.77;;;13.40;78.90;;;;;;5129171;28;20444;-80
2022/04/19 07:12:02;;;;;;;7.83;3.13;;;13.60;78.30;;;;;;5127157;27;20473;-79
2022/04/19 07:14:37;;;;;;;8.80;2.57;;;13.70;77.30;;;;;;5127350;28;20540;-81
2022/04/19 07:17:09;;;;;;;7.00;2.87;;;13.80;76.30;;;;;;5129913;27;20471;-82
2022/04/19 07:28:05;;;;;;;5.30;2.13;;;14.30;74.20;;;;;;5128831;28;20491;-80
2022/04/19 07:30:47;;;;;;;7.00;2.10;;;14.40;73.00;;;;;;5128559;28;20479;-80
2022/04/19 07:33:17;;;;;;;5.73;2.10;;;14.50;71.70;;;;;;5129514;28;20467;-82
2022/04/19 07:35:47;;;;;;;5.90;2.70;;;14.50;71.40;;;;;;5129703;28;20447;-80
2022/04/19 07:38:15;;;;;;;5.73;2.30;;;14.50;71.00;;;;;;5129640;28;20483;-81
2022/04/19 07:41:07;;;;;;;5.80;2.30;;;14.60;70.80;;;;;;5130311;28;20492;-81
2022/04/19 07:43:38;;;;;;;7.77;2.60;;;14.70;70.70;;;;;;5133702;28;20436;-82
2022/04/19 07:46:10;;;;;;;7.30;2.80;;;14.80;70.40;;;;;;5133205;28;20473;-81
2022/04/19 07:48:39;;;;;;;5.93;2.13;;;14.90;70.10;;;;;;5131608;28;20474;-80
2022/04/19 07:51:07;;;;;;;7.00;2.40;;;15.00;69.70;;;;;;5130197;28;20479;-80
2022/04/19 07:53:36;;;;;;;5.83;2.37;;;15.10;69.20;;;;;;5130848;28;20443;-80
2022/04/19 07:56:05;;;;;;;5.83;2.33;;;15.30;69.20;;;;;;5130201;28;20418;-80
2022/04/19 07:58:34;;;;;;;6.20;2.23;;;15.40;68.80;;;;;;5132882;28;20441;-80
2022/04/19 08:01:02;;;;;;;6.63;2.07;;;15.50;68.60;;;;;;5133956;28;20467;-80
2022/04/19 08:03:34;;;;;;;5.27;2.13;;;15.60;68.10;;;;;;5134501;28;20764;-80
2022/04/19 08:06:02;;;;;;;5.77;2.30;;;15.80;68.20;;;;;;5136428;27;20794;-80
2022/04/19 08:08:31;;;;;;;6.10;2.57;;;15.90;68.00;;;;;;5134814;28;21037;-81
2022/04/19 08:10:59;;;;;;;6.97;2.37;;;16.00;67.40;;;;;;5152237;27;20463;-81
2022/04/19 08:13:27;;;;;;;4.87;1.83;;;16.10;67.00;;;;;;5135778;27;20450;-81
2022/04/19 08:15:56;;;;;;;5.73;1.80;;;16.20;66.50;;;;;;5134329;28;20451;-80
2022/04/19 08:18:24;;;;;;;5.63;1.90;;;16.20;66.10;;;;;;5134198;28;20459;-81
2022/04/19 08:20:56;;;;;;;4.60;1.40;;;16.20;65.80;;;;;;5133761;28;20465;-81
2022/04/19 08:23:24;;;;;;;6.70;1.90;;;16.30;65.30;;;;;;5133611;28;20446;-81
2022/04/19 08:26:02;;;;;;;4.67;1.70;;;16.40;64.90;;;;;;5132426;28;20433;-80
2022/04/19 08:28:31;;;;;;;5.37;1.83;;;16.40;64.50;;;;;;5131642;28;20478;-80
2022/04/19 08:30:59;;;;;;;5.20;1.70;;;16.40;64.70;;;;;;5132898;28;20467;-81
2022/04/19 08:33:31;;;;;;;5.93;2.20;;;16.40;63.60;;;;;;5133046;28;20470;-80
2022/04/19 08:36:01;;;;;;;5.87;1.83;;;16.40;63.80;;;;;;5130871;28;20487;-81
2022/04/19 08:38:31;;;;;;;4.83;1.80;;;16.40;63.80;;;;;;5129939;28;20467;-81
2022/04/19 08:41:00;;;;;;;6.30;1.77;;;16.50;63.70;;;;;;5129995;28;20508;-80
2022/04/19 08:43:30;;;;;;;5.37;1.87;;;16.50;63.50;;;;;;5131479;28;20818;-81
2022/04/19 08:46:00;;;;;;;7.23;2.00;;;16.50;62.80;;;;;;5131856;28;20479;-81
2022/04/19 08:48:28;;;;;;;5.23;1.90;;;16.50;62.50;;;;;;5133873;28;20443;-81
2022/04/19 08:50:56;;;;;;;4.90;1.60;;;16.50;61.90;;;;;;5131473;28;20455;-81
2022/04/19 08:58:57;;;;;;;5.97;2.30;;;16.30;61.30;;;;;;5133703;28;20834;-81
2022/04/19 09:01:26;;;;;;;6.40;2.30;;;16.30;61.30;;;;;;5133924;28;20414;-80
2022/04/19 09:03:54;;;;;;;6.00;2.60;;;16.30;61.00;;;;;;5133778;28;20439;-80
2022/04/19 09:06:23;;;;;;;5.00;1.80;;;16.30;61.50;;;;;;5148629;27;20422;-80
2022/04/19 09:09:11;;;;;;;5.30;2.20;;;16.30;61.80;;;;;;5132294;28;20543;-80
2022/04/19 09:11:39;;;;;;;6.37;2.57;;;16.40;60.90;;;;;;5132661;28;20459;-80
2022/04/19 09:14:08;;;;;;;6.43;2.93;;;16.40;61.20;;;;;;5134388;28;20450;-80
2022/04/19 09:16:36;;;;;;;5.90;2.57;;;16.50;61.20;;;;;;5138960;28;20443;-81
2022/04/19 09:19:08;;;;;;;6.47;3.30;;;16.50;61.10;;;;;;5140479;28;20459;-81
2022/04/19 09:21:38;;;;;;;5.50;2.53;;;16.50;61.40;;;;;;5138552;28;20438;-80
2022/04/19 09:24:19;;;;;;;8.63;3.50;;;16.60;61.30;;;;;;5136171;28;20439;-80
2022/04/19 09:26:48;;;;;;;7.13;2.70;;;16.70;60.80;;;;;;5135487;28;20481;-81
2022/04/19 09:29:18;;;;;;;6.77;3.30;;;16.70;60.80;;;;;;5136195;28;20410;-80
2022/04/19 09:31:47;;;;;;;7.10;2.90;;;16.70;60.80;;;;;;5133819;28;20837;-81
2022/04/19 09:34:28;;;;;;;7.10;2.90;;;16.70;60.80;;;;;;5135273;28;20825;-80
2022/04/19 09:37:07;;;;;;;5.70;2.80;;;16.70;60.50;;;;;;5133692;28;20470;-81
2022/04/19 09:39:38;;;;;;;5.97;2.70;;;16.70;60.70;;;;;;5133490;28;20439;-81
2022/04/19 09:42:08;;;;;;;8.00;3.10;;;16.70;61.00;;;;;;5132100;28;20426;-80
2022/04/19 09:44:40;;;;;;;6.73;3.27;;;16.80;61.10;;;;;;5133744;28;20812;-80
2022/04/19 09:47:10;;;;;;;6.60;2.97;;;16.80;60.70;;;;;;5134510;28;20448;-81
2022/04/19 09:49:44;;;;;;;8.00;3.43;;;16.80;60.50;;;;;;5131882;28;20428;-81
2022/04/19 09:52:41;;;;;;;7.00;3.53;;;16.80;60.60;;;;;;5133827;28;20460;-81
2022/04/19 09:55:18;;;;;;;7.10;3.40;;;16.80;60.60;;;;;;5131991;28;20442;-81
2022/04/19 09:57:48;;;;;;;6.50;3.17;;;16.80;60.60;;;;;;5131773;28;21041;-81
2022/04/19 10:00:19;;;;;;;7.43;3.00;;;16.80;60.50;;;;;;5149453;27;20435;-81
2022/04/19 10:08:29;;;;;;;7.03;2.97;;;16.80;60.30;;;;;;5094422;28;20498;-81
2022/04/19 10:11:00;;;;;;;6.40;2.77;;;16.70;60.00;;;;;;5131000;28;20449;-81
2022/04/19 10:13:29;;;;;;;7.87;3.03;;;16.70;59.60;;;;;;5147682;27;21102;-80
2022/04/19 10:16:02;;;;;;;8.20;3.27;;;16.70;59.30;;;;;;5131751;28;20439;-81
2022/04/19 10:18:30;;;;;;;6.00;2.77;;;16.60;59.20;;;;;;5130192;28;20474;-80
2022/04/19 10:21:02;;;;;;;6.23;3.00;;;16.60;59.20;;;;;;5129193;28;20962;-80
2022/04/19 10:23:35;;;;;;;6.40;2.70;;;16.50;59.10;;;;;;5157249;27;20478;-82
2022/04/19 10:26:22;;;;;;;6.53;3.10;;;16.50;59.20;;;;;;5139712;28;20550;-82
2022/04/19 10:28:52;;;;;;;11.27;3.43;;;16.50;59.00;;;;;;5137178;28;20537;-81
2022/04/19 10:31:28;;;;;;;6.77;3.17;;;16.60;59.60;;;;;;5109674;28;20523;-81
2022/04/19 10:34:01;;;;;;;7.00;3.23;;;16.60;59.50;;;;;;5108813;28;20456;-81
2022/04/19 10:36:37;;;;;;;7.37;3.30;;;16.60;59.70;;;;;;5111551;28;20447;-81
2022/04/19 10:39:30;;;;;;;7.33;3.50;;;16.70;60.00;;;;;;5111628;28;20463;-80
2022/04/19 10:42:02;;;;;;;6.13;2.90;;;16.70;60.00;;;;;;5128578;28;20456;-81
2022/04/19 10:44:36;;;;;;;6.57;3.50;;;16.70;59.70;;;;;;5111212;28;20445;-80
2022/04/19 10:47:06;;;;;;;6.80;3.30;;;16.70;59.90;;;;;;5109729;28;20460;-81
2022/04/19 10:49:49;;;;;;;7.97;3.73;;;16.70;60.10;;;;;;5116631;27;20446;-82
2022/04/19 10:52:48;;;;;;;7.00;3.30;;;16.70;59.90;;;;;;5131951;28;20426;-81
2022/04/19 10:55:28;;;;;;;5.90;3.20;;;16.70;59.70;;;;;;5129627;28;20447;-80
2022/04/19 10:58:16;;;;;;;7.27;3.50;;;16.70;59.90;;;;;;5127729;28;20490;-81
2022/04/19 11:00:51;;;;;;;8.03;3.40;;;16.60;59.80;;;;;;5130127;28;20950;-81
2022/04/19 11:03:52;;;;;;;8.10;3.17;;;16.70;60.40;;;;;;5130767;28;20610;-82
2022/04/19 11:06:32;;;;;;;8.47;3.07;;;16.70;60.70;;;;;;5131344;28;20475;-81
2022/04/19 11:09:28;;;;;;;8.20;3.50;;;16.80;60.10;;;;;;5131816;28;20470;-80
2022/04/19 11:12:09;;;;;;;6.60;3.80;;;16.80;59.90;;;;;;5132714;28;20402;-80
2022/04/19 11:14:41;;;;;;;8.40;4.40;;;16.70;59.90;;;;;;5133103;28;20386;-80
2022/04/19 11:17:27;;;;;;;6.50;3.50;;;16.70;59.90;;;;;;5132569;28;20530;-80
2022/04/19 11:20:09;;;;;;;7.33;3.40;;;16.70;59.70;;;;;;5131657;28;20451;-80
2022/04/19 11:22:52;;;;;;;7.33;3.53;;;16.70;60.20;;;;;;5132456;28;20436;-80
2022/04/19 11:25:39;;;;;;;7.23;3.30;;;16.80;60.30;;;;;;5132461;28;20450;-80
2022/04/19 11:28:30;;;;;;;8.60;3.63;;;16.80;60.20;;;;;;5132700;28;20530;-80
2022/04/19 11:31:15;;;;;;;8.47;3.93;;;16.80;60.20;;;;;;5131669;28;20414;-80
2022/04/19 11:33:43;;;;;;;6.87;3.00;;;16.80;60.50;;;;;;5130052;28;20868;-80
2022/04/19 11:36:15;;;;;;;7.20;4.00;;;16.80;60.70;;;;;;5130363;28;20466;-80
2022/04/19 11:38:46;;;;;;;7.10;4.10;;;16.90;60.80;;;;;;5131867;28;20531;-80
2022/04/19 11:46:58;;;;;;;6.67;3.37;;;17.00;61.10;;;;;;5147450;28;20491;-80
2022/04/19 11:49:31;;;;;;;7.63;3.73;;;17.00;61.10;;;;;;5129696;28;20862;-81
2022/04/19 11:52:02;;;;;;;7.00;3.90;;;17.00;61.00;;;;;;5105635;28;20433;-81
2022/04/19 11:54:32;;;;;;;7.50;3.53;;;17.00;61.30;;;;;;5116625;28;20463;-81
2022/04/19 11:57:01;;;;;;;8.50;3.93;;;17.00;61.40;;;;;;5125697;28;20497;-81
2022/04/19 11:59:32;;;;;;;7.13;3.90;;;17.10;61.30;;;;;;5129239;28;20438;-81
2022/04/19 12:02:03;;;;;;;8.30;4.27;;;17.10;61.20;;;;;;5126713;28;20415;-81
2022/04/19 12:04:31;;;;;;;6.87;3.57;;;17.10;61.20;;;;;;5129299;28;20486;-81
2022/04/19 12:07:02;;;;;;;6.97;3.97;;;17.10;61.30;;;;;;5127045;28;20477;-81
2022/04/19 12:09:32;;;;;;;7.93;4.70;;;17.10;61.30;;;;;;5145612;28;20439;-81
2022/04/19 12:12:06;;;;;;;8.27;4.40;;;17.10;61.30;;;;;;5139925;28;20471;-81
2022/04/19 12:14:35;;;;;;;7.60;4.40;;;17.10;61.10;;;;;;5146075;28;20470;-81
2022/04/19 12:17:06;;;;;;;8.50;3.73;;;17.10;61.30;;;;;;5128601;28;20463;-81
2022/04/19 12:19:38;;;;;;;8.53;4.80;;;17.10;61.60;;;;;;5130193;28;20445;-81
2022/04/19 12:22:21;;;;;;;8.00;4.07;;;17.10;61.60;;;;;;5126671;28;20431;-81
2022/04/19 12:24:53;;;;;;;9.00;4.80;;;17.10;61.30;;;;;;5144175;28;20411;-82
2022/04/19 12:27:25;;;;;;;10.60;4.97;;;17.20;61.60;;;;;;5121335;28;20441;-81
2022/04/19 12:30:02;;;;;;;8.10;5.03;;;17.20;61.70;;;;;;5124235;28;20500;-81
2022/04/19 12:32:51;;;;;;;11.60;5.30;;;17.20;61.50;;;;;;5123703;28;20493;-82
2022/04/19 12:35:24;;;;;;;9.33;5.30;;;17.20;61.60;;;;;;5128377;28;20435;-81
2022/04/19 12:38:06;;;;;;;9.07;5.53;;;17.20;61.70;;;;;;5126669;28;20495;-80
2022/04/19 12:40:34;;;;;;;9.47;4.90;;;17.20;61.40;;;;;;5135817;28;20455;-80
2022/04/19 12:43:03;;;;;;;8.57;4.97;;;17.20;61.50;;;;;;5133849;28;20468;-81
2022/04/19 12:45:32;;;;;;;8.43;5.00;;;17.10;61.30;;;;;;5107698;28;20472;-80
2022/04/19 12:48:04;;;;;;;8.70;4.67;;;17.10;61.40;;;;;;5107788;28;20498;-81
2022/04/19 12:50:32;;;;;;;7.43;4.57;;;17.20;61.70;;;;;;5125337;28;20422;-81
2022/04/19 12:53:02;;;;;;;8.97;4.80;;;17.20;61.80;;;;;;5108340;28;20942;-81
2022/04/19 12:55:31;;;;;;;9.70;5.37;;;17.20;62.00;;;;;;5119821;28;20478;-80
2022/04/19 12:58:09;;;;;;;10.40;4.87;;;17.30;61.90;;;;;;5130210;27;20475;-80
2022/04/19 13:00:38;;;;;;;7.50;3.87;;;17.30;61.80;;;;;;5128198;28;20455;-80
2022/04/19 13:03:08;;;;;;;7.10;4.30;;;17.30;61.90;;;;;;5129104;28;20512;-80
2022/04/19 13:13:54;;;;;;;7.30;3.63;;;17.40;61.90;;;;;;5118549;28;20487;-81
2022/04/19 13:16:22;;;;;;;6.03;3.57;;;17.50;62.00;;;;;;5118862;28;20415;-81
2022/04/19 13:18:52;;;;;;;8.00;4.30;;;17.50;61.90;;;;;;5140674;27;20466;-82
2022/04/19 13:21:20;;;;;;;6.93;4.20;;;17.60;61.90;;;;;;5118992;28;20475;-81
2022/04/19 13:23:48;;;;;;;8.97;3.83;;;17.70;61.90;;;;;;5119158;28;20478;-81
2022/04/19 13:26:18;;;;;;;7.70;4.17;;;17.70;61.60;;;;;;5118455;28;20451;-81
2022/04/19 13:28:46;;;;;;;6.80;3.93;;;17.70;61.40;;;;;;5118350;28;20467;-81
2022/04/19 13:31:14;;;;;;;9.00;4.37;;;17.60;61.40;;;;;;5118267;28;20915;-81
2022/04/19 13:33:42;;;;;;;6.80;3.90;;;17.60;61.50;;;;;;5117962;28;20546;-81
2022/04/19 13:36:12;;;;;;;7.07;4.30;;;17.70;61.50;;;;;;5134704;27;20454;-81
2022/04/19 13:38:40;;;;;;;7.10;4.13;;;17.70;61.50;;;;;;5119016;28;20471;-82
2022/04/19 13:41:08;;;;;;;7.57;4.27;;;17.70;61.40;;;;;;5122375;27;20451;-81
2022/04/19 13:43:39;;;;;;;7.07;3.93;;;17.70;61.30;;;;;;5117855;28;20442;-81
2022/04/19 13:46:08;;;;;;;6.80;3.93;;;17.70;61.20;;;;;;5117389;28;20451;-82
2022/04/19 13:48:36;;;;;;;7.17;4.00;;;17.70;61.20;;;;;;5118581;28;20880;-81
2022/04/19 13:51:04;;;;;;;10.40;4.50;;;17.70;61.10;;;;;;5120425;28;20447;-81
2022/04/19 13:53:34;;;;;;;7.50;3.60;;;17.70;60.90;;;;;;5120683;27;20531;-81